createdAt,value
2018-08-23T00:01:24.041Z,19.50
2018-08-23T00:04:22.655Z,19.50
2018-08-23T00:07:20.354Z,19.50
2018-08-23T00:10:19.337Z,19.50
2018-08-23T00:13:16.810Z,19.60
2018-08-23T00:20:14.622Z,19.50
2018-08-23T00:23:11.902Z,19.50
2018-08-23T00:26:09.560Z,19.40
2018-08-23T00:29:07.320Z,19.40
2018-08-23T00:32:11.176Z,19.40
2018-08-23T00:35:08.995Z,19.30
2018-08-23T00:38:06.817Z,19.30
2018-08-23T00:41:04.690Z,19.30
2018-08-23T00:44:02.476Z,19.30
2018-08-23T00:47:02.288Z,19.20
2018-08-23T00:50:00.144Z,19.20
2018-08-23T00:53:01.946Z,19.20
2018-08-23T00:55:59.651Z,19.10
2018-08-23T00:59:04.174Z,19.10
2018-08-23T01:02:06.945Z,19.10
2018-08-23T01:05:06.495Z,19.10
2018-08-23T01:08:04.051Z,19.10
2018-08-23T01:11:02.115Z,19.10
2018-08-23T01:13:59.755Z,19.10
2018-08-23T01:17:03.743Z,19.10
2018-08-23T01:20:07.375Z,19.10
2018-08-23T01:23:14.210Z,19.10
2018-08-23T01:26:12.136Z,19.00
2018-08-23T01:29:10.028Z,19.00
2018-08-23T01:32:07.797Z,19.00
2018-08-23T01:35:05.658Z,19.00
2018-08-23T01:38:04.326Z,19.00
2018-08-23T01:41:07.228Z,19.00
2018-08-23T01:44:05.192Z,19.10
2018-08-23T01:47:03.102Z,19.10
2018-08-23T01:50:01.007Z,19.20
2018-08-23T01:53:01.703Z,19.20
2018-08-23T01:55:59.480Z,19.20
2018-08-23T01:58:57.132Z,19.10
2018-08-23T02:01:55.863Z,19.10
2018-08-23T02:04:54.730Z,19.00
2018-08-23T02:07:52.560Z,19.00
2018-08-23T02:10:50.209Z,18.90
2018-08-23T02:13:47.974Z,18.90
2018-08-23T02:16:52.766Z,18.80
2018-08-23T02:19:56.618Z,18.80
2018-08-23T02:22:54.641Z,18.80
2018-08-23T02:25:52.265Z,18.70
2018-08-23T02:28:49.954Z,18.70
2018-08-23T02:31:47.785Z,18.70
2018-08-23T02:34:46.607Z,18.60
2018-08-23T02:37:44.191Z,18.60
2018-08-23T02:40:42.036Z,18.60
2018-08-23T02:43:39.872Z,18.60
2018-08-23T02:46:37.707Z,18.60
2018-08-23T02:49:35.456Z,18.40
2018-08-23T02:52:38.335Z,18.50
2018-08-23T02:55:36.158Z,18.40
2018-08-23T02:58:33.783Z,18.50
2018-08-23T03:01:31.511Z,18.50
2018-08-23T03:04:34.169Z,18.40
2018-08-23T03:07:35.750Z,18.40
2018-08-23T03:10:33.788Z,18.40
2018-08-23T03:13:31.447Z,18.40
2018-08-23T03:16:29.226Z,18.40
2018-08-23T03:19:26.911Z,18.30
2018-08-23T03:22:24.842Z,18.30
2018-08-23T03:25:26.744Z,18.30
2018-08-23T03:28:24.590Z,18.30
2018-08-23T03:31:23.468Z,18.30
2018-08-23T03:34:21.264Z,18.20
2018-08-23T03:37:19.176Z,18.20
2018-08-23T03:40:17.964Z,18.30
2018-08-23T03:43:15.915Z,18.30
2018-08-23T03:46:13.555Z,18.30
2018-08-23T03:49:13.335Z,18.40
2018-08-23T03:52:11.036Z,18.30
2018-08-23T03:55:12.898Z,18.30
2018-08-23T03:58:10.624Z,18.40
2018-08-23T04:01:18.455Z,18.40
2018-08-23T04:04:16.188Z,18.30
2018-08-23T04:07:13.809Z,18.40
2018-08-23T04:10:11.499Z,18.40
2018-08-23T04:13:09.204Z,18.30
2018-08-23T04:16:06.871Z,18.30
2018-08-23T04:19:05.581Z,18.40
2018-08-23T04:22:03.464Z,18.40
2018-08-23T04:25:04.206Z,18.30
2018-08-23T04:28:01.993Z,18.30
2018-08-23T04:30:59.725Z,18.30
2018-08-23T04:33:57.534Z,18.40
2018-08-23T04:36:55.264Z,18.40
2018-08-23T04:39:59.212Z,18.40
2018-08-23T04:42:57.014Z,18.40
2018-08-23T04:45:55.731Z,18.40
2018-08-23T04:48:53.705Z,18.40
2018-08-23T04:51:51.668Z,18.40
2018-08-23T04:54:49.332Z,18.40
2018-08-23T04:57:47.277Z,18.40
2018-08-23T05:00:44.865Z,18.50
2018-08-23T05:03:42.721Z,18.50
2018-08-23T05:06:40.870Z,18.50
2018-08-23T05:09:39.666Z,18.60
2018-08-23T05:12:37.280Z,18.60
2018-08-23T05:15:35.085Z,18.60
2018-08-23T05:18:32.711Z,18.70
2018-08-23T05:21:30.304Z,18.70
2018-08-23T05:24:28.084Z,18.70
2018-08-23T05:27:26.823Z,18.80
2018-08-23T05:30:25.090Z,18.80
2018-08-23T05:33:24.494Z,18.90
2018-08-23T05:36:23.645Z,18.90
2018-08-23T05:39:22.288Z,19.00
2018-08-23T05:42:20.135Z,19.10
2018-08-23T05:45:17.934Z,19.10
2018-08-23T05:48:27.400Z,19.10
2018-08-23T05:51:26.538Z,19.10
2018-08-23T05:54:24.346Z,19.10
2018-08-23T05:57:22.788Z,19.20
2018-08-23T06:00:20.156Z,19.30
2018-08-23T06:03:17.773Z,19.40
2018-08-23T06:06:15.593Z,19.50
2018-08-23T06:09:13.270Z,19.60
2018-08-23T06:12:26.158Z,19.70
2018-08-23T06:15:23.841Z,19.70
2018-08-23T06:18:22.568Z,19.90
2018-08-23T06:21:20.305Z,20.00
2018-08-23T06:24:17.971Z,20.00
2018-08-23T06:27:15.936Z,20.20
2018-08-23T06:30:13.388Z,20.20
2018-08-23T06:33:11.277Z,20.40
2018-08-23T06:36:08.845Z,21.60
2018-08-23T06:39:08.630Z,23.50
2018-08-23T06:42:10.014Z,24.10
2018-08-23T06:45:07.931Z,24.70
2018-08-23T06:48:07.696Z,25.40
2018-08-23T06:51:06.512Z,26.10
2018-08-23T06:54:08.157Z,26.80
2018-08-23T06:57:07.003Z,25.60
2018-08-23T07:00:05.308Z,24.60
2018-08-23T07:03:04.456Z,25.40
2018-08-23T07:06:03.191Z,25.40
2018-08-23T07:09:00.944Z,24.90
2018-08-23T07:11:59.548Z,24.90
2018-08-23T07:14:58.741Z,25.50
2018-08-23T07:17:57.275Z,26.20
2018-08-23T07:20:54.995Z,26.40
2018-08-23T07:23:53.718Z,26.30
2018-08-23T07:26:51.639Z,25.70
2018-08-23T07:29:49.938Z,25.50
2018-08-23T07:32:48.982Z,25.90
2018-08-23T07:35:46.789Z,26.40
2018-08-23T07:38:45.443Z,26.10
2018-08-23T07:41:42.983Z,25.70
2018-08-23T07:44:42.865Z,25.90
2018-08-23T07:47:43.531Z,26.40
2018-08-23T07:50:41.343Z,27.20
2018-08-23T07:53:39.881Z,27.00
2018-08-23T07:56:42.476Z,26.30
2018-08-23T07:59:40.339Z,25.60
2018-08-23T08:02:38.116Z,25.50
2018-08-23T08:05:42.100Z,26.30
2018-08-23T08:08:39.639Z,26.70
2018-08-23T08:11:37.260Z,26.90
2018-08-23T08:14:40.035Z,27.00
2018-08-23T08:17:40.655Z,27.50
2018-08-23T08:20:38.458Z,27.60
2018-08-23T08:23:36.299Z,27.90
2018-08-23T08:26:34.207Z,28.40
2018-08-23T08:29:37.835Z,28.30
2018-08-23T08:32:36.551Z,28.70
2018-08-23T08:35:34.235Z,29.80
2018-08-23T08:38:32.236Z,29.90
2018-08-23T08:41:29.513Z,29.80
2018-08-23T08:44:27.245Z,29.90
2018-08-23T08:47:25.064Z,29.50
2018-08-23T08:50:23.991Z,29.40
2018-08-23T08:53:21.851Z,29.00
2018-08-23T08:56:19.601Z,28.60
2018-08-23T08:59:17.481Z,27.60
2018-08-23T09:02:15.905Z,27.60
2018-08-23T09:05:13.307Z,27.50
2018-08-23T09:08:10.948Z,26.40
2018-08-23T09:11:08.686Z,27.50
2018-08-23T09:14:06.259Z,28.20
2018-08-23T09:17:04.119Z,28.30
2018-08-23T09:20:12.891Z,27.20
2018-08-23T09:23:10.588Z,26.30
2018-08-23T09:26:10.501Z,25.60
2018-08-23T09:29:08.253Z,25.50
2018-08-23T09:32:06.151Z,25.20
2018-08-23T09:35:09.769Z,25.00
2018-08-23T09:38:09.566Z,25.20
2018-08-23T09:41:07.198Z,25.80
2018-08-23T09:44:05.081Z,26.20
2018-08-23T09:47:11.783Z,26.30
2018-08-23T09:50:12.755Z,26.10
2018-08-23T09:53:10.616Z,26.10
2018-08-23T09:56:08.909Z,25.90
2018-08-23T09:59:06.298Z,25.50
2018-08-23T10:02:10.895Z,25.20
2018-08-23T10:05:12.977Z,25.20
2018-08-23T10:08:16.603Z,25.20
2018-08-23T10:11:21.263Z,25.20
2018-08-23T10:14:24.080Z,24.90
2018-08-23T10:17:27.796Z,24.50
2018-08-23T10:20:31.688Z,24.50
2018-08-23T10:23:31.346Z,24.40
2018-08-23T10:26:41.991Z,24.20
2018-08-23T10:29:39.794Z,24.30
2018-08-23T10:32:37.376Z,24.30
2018-08-23T10:35:34.950Z,24.30
2018-08-23T10:38:34.568Z,24.60
2018-08-23T10:41:32.236Z,24.80
2018-08-23T10:44:29.821Z,25.20
2018-08-23T10:47:33.421Z,26.40
2018-08-23T10:50:31.218Z,28.00
2018-08-23T10:53:28.911Z,28.30
2018-08-23T10:56:26.698Z,27.30
2018-08-23T10:59:24.432Z,26.90
2018-08-23T11:02:22.011Z,26.50
2018-08-23T11:05:19.820Z,26.10
2018-08-23T11:08:23.611Z,25.90
2018-08-23T11:11:27.287Z,26.10
2018-08-23T11:14:32.041Z,26.10
2018-08-23T11:17:35.709Z,26.60
2018-08-23T11:20:41.583Z,26.90
2018-08-23T11:23:39.473Z,26.80
2018-08-23T11:26:37.180Z,27.00
2018-08-23T11:29:34.764Z,27.30
2018-08-23T11:32:33.476Z,26.90
2018-08-23T11:35:31.254Z,26.40
2018-08-23T11:38:29.034Z,26.90
2018-08-23T11:41:26.671Z,27.20
2018-08-23T11:44:24.288Z,27.50
2018-08-23T11:47:22.040Z,27.70
2018-08-23T11:50:20.722Z,28.10
2018-08-23T11:53:23.252Z,27.90
2018-08-23T11:56:30.100Z,27.50
2018-08-23T11:59:29.926Z,27.20
2018-08-23T12:02:28.677Z,27.40
2018-08-23T12:05:26.549Z,27.80
2018-08-23T12:08:24.290Z,27.50
2018-08-23T12:11:22.116Z,27.40
2018-08-23T12:14:19.486Z,28.20
2018-08-23T12:17:19.196Z,28.00
2018-08-23T12:20:17.623Z,27.80
2018-08-23T12:23:15.443Z,28.30
2018-08-23T12:26:13.197Z,28.30
2018-08-23T12:29:16.983Z,28.10
2018-08-23T12:32:18.774Z,28.20
2018-08-23T12:35:16.783Z,28.10
2018-08-23T12:38:29.492Z,26.80
2018-08-23T12:41:34.117Z,26.10
2018-08-23T12:44:31.665Z,26.10
2018-08-23T12:47:29.478Z,26.20
2018-08-23T12:50:28.021Z,26.20
2018-08-23T12:53:25.704Z,26.40
2018-08-23T12:56:23.381Z,26.10
2018-08-23T12:59:24.164Z,26.00
2018-08-23T13:02:22.111Z,26.20
2018-08-23T13:05:20.068Z,26.50
2018-08-23T13:08:18.625Z,26.70
2018-08-23T13:11:17.445Z,26.60
2018-08-23T13:14:14.993Z,26.50
2018-08-23T13:17:12.917Z,26.40
2018-08-23T13:20:10.642Z,26.80
2018-08-23T13:23:08.277Z,26.70
2018-08-23T13:26:06.012Z,26.70
2018-08-23T13:29:03.551Z,26.90
2018-08-23T13:32:01.508Z,26.40
2018-08-23T13:35:00.123Z,26.10
2018-08-23T13:37:57.581Z,25.80
2018-08-23T13:40:55.282Z,25.80
2018-08-23T13:43:53.105Z,26.10
2018-08-23T13:46:50.742Z,26.60
2018-08-23T13:49:48.191Z,26.30
2018-08-23T13:52:45.868Z,26.00
2018-08-23T13:55:43.487Z,26.00
2018-08-23T13:58:41.136Z,26.10
2018-08-23T14:01:38.737Z,26.00
2018-08-23T14:04:36.434Z,26.30
2018-08-23T14:07:34.247Z,26.30
2018-08-23T14:10:32.177Z,26.50
2018-08-23T14:13:32.097Z,26.30
2018-08-23T14:16:29.728Z,26.10
2018-08-23T14:19:27.527Z,26.30
2018-08-23T14:22:25.388Z,26.70
2018-08-23T14:25:23.123Z,26.70
2018-08-23T14:28:23.880Z,27.00
2018-08-23T14:31:21.533Z,27.10
2018-08-23T14:34:20.224Z,26.50
2018-08-23T14:37:18.772Z,26.20
2018-08-23T14:40:16.616Z,25.90
2018-08-23T14:43:16.134Z,25.80
2018-08-23T14:46:20.540Z,25.90
2018-08-23T14:49:24.483Z,26.20
2018-08-23T14:52:22.411Z,26.40
2018-08-23T14:55:25.141Z,26.50
2018-08-23T14:58:23.690Z,26.60
2018-08-23T15:01:22.444Z,26.30
2018-08-23T15:04:21.113Z,26.30
2018-08-23T15:07:18.964Z,26.30
2018-08-23T15:10:19.580Z,26.20
2018-08-23T15:13:17.143Z,25.90
2018-08-23T15:16:15.010Z,25.70
2018-08-23T15:19:13.809Z,25.50
2018-08-23T15:22:11.550Z,25.40
2018-08-23T15:25:09.480Z,25.40
2018-08-23T15:28:07.311Z,25.30
2018-08-23T15:31:13.483Z,25.40
2018-08-23T15:34:11.176Z,25.40
2018-08-23T15:37:08.868Z,25.50
2018-08-23T15:40:21.552Z,25.50
2018-08-23T15:43:19.172Z,25.40
2018-08-23T15:46:19.131Z,25.20
2018-08-23T15:49:16.696Z,25.10
2018-08-23T15:52:14.367Z,25.20
2018-08-23T15:55:12.115Z,25.30
2018-08-23T15:58:09.506Z,25.00
2018-08-23T16:01:07.318Z,24.90
2018-08-23T16:04:04.937Z,25.00
2018-08-23T16:07:02.902Z,25.00
2018-08-23T16:10:00.651Z,24.70
2018-08-23T16:12:58.268Z,24.80
2018-08-23T16:16:02.062Z,24.70
2018-08-23T16:19:05.516Z,24.40
2018-08-23T16:22:04.186Z,24.20
2018-08-23T16:25:02.153Z,24.10
2018-08-23T16:27:59.909Z,24.00
2018-08-23T16:30:57.648Z,24.00
2018-08-23T16:33:55.353Z,23.90
2018-08-23T16:36:53.077Z,23.80
2018-08-23T16:39:50.913Z,23.80
2018-08-23T16:42:49.522Z,23.70
2018-08-23T16:45:47.288Z,23.70
2018-08-23T16:48:44.903Z,23.70
2018-08-23T16:51:42.687Z,23.60
2018-08-23T16:54:40.392Z,23.60
2018-08-23T16:57:38.126Z,23.60
2018-08-23T17:00:35.683Z,23.50
2018-08-23T17:03:33.510Z,23.40
2018-08-23T17:06:33.203Z,23.40
2018-08-23T17:09:31.100Z,23.30
2018-08-23T17:12:28.849Z,23.30
2018-08-23T17:15:26.709Z,23.20
2018-08-23T17:18:24.358Z,22.90
2018-08-23T17:21:22.188Z,22.80
2018-08-23T17:24:19.979Z,22.70
2018-08-23T17:27:17.614Z,22.60
2018-08-23T17:30:16.505Z,22.40
2018-08-23T17:33:14.001Z,22.20
2018-08-23T17:36:11.695Z,22.10
2018-08-23T17:39:10.356Z,22.10
2018-08-23T17:42:08.130Z,21.90
2018-08-23T17:45:05.689Z,21.70
2018-08-23T17:48:03.612Z,21.60
2018-08-23T17:51:03.175Z,21.50
2018-08-23T17:54:01.105Z,21.50
2018-08-23T17:57:00.978Z,21.40
2018-08-23T17:59:59.048Z,21.30
2018-08-23T18:02:56.924Z,21.20
2018-08-23T18:05:54.898Z,21.10
2018-08-23T18:08:52.449Z,21.10
2018-08-23T18:11:50.273Z,21.00
2018-08-23T18:14:49.160Z,21.00
2018-08-23T18:17:48.989Z,20.90
2018-08-23T18:20:46.543Z,20.80
2018-08-23T18:23:44.619Z,20.70
2018-08-23T18:26:42.284Z,20.70
2018-08-23T18:29:40.086Z,20.60
2018-08-23T18:32:37.807Z,20.50
2018-08-23T18:35:36.485Z,20.50
2018-08-23T18:38:34.195Z,20.50
2018-08-23T18:41:33.021Z,20.50
2018-08-23T18:44:30.950Z,20.40
2018-08-23T18:47:28.534Z,20.30
2018-08-23T18:50:26.231Z,20.30
2018-08-23T18:53:23.899Z,20.30
2018-08-23T18:56:21.638Z,20.20
2018-08-23T18:59:19.524Z,20.20
2018-08-23T19:02:17.197Z,20.10
2018-08-23T19:05:14.930Z,20.10
2018-08-23T19:08:13.520Z,20.10
2018-08-23T19:11:11.304Z,20.10
2018-08-23T19:14:08.982Z,20.10
2018-08-23T19:17:13.652Z,20.00
2018-08-23T19:20:11.581Z,19.90
2018-08-23T19:23:09.208Z,19.90
2018-08-23T19:26:06.928Z,19.90
2018-08-23T19:29:05.023Z,19.80
2018-08-23T19:32:02.694Z,19.80
2018-08-23T19:35:00.270Z,19.80
2018-08-23T19:37:58.159Z,19.70
2018-08-23T19:40:55.983Z,19.70
2018-08-23T19:43:53.622Z,19.70
2018-08-23T19:46:57.074Z,19.70
2018-08-23T19:50:02.859Z,19.60
2018-08-23T19:53:00.218Z,19.50
2018-08-23T19:55:58.031Z,19.50
2018-08-23T19:58:55.717Z,19.50
2018-08-23T20:01:53.275Z,19.60
2018-08-23T20:04:50.992Z,19.60
2018-08-23T20:07:48.625Z,19.50
2018-08-23T20:10:46.183Z,19.50
2018-08-23T20:13:43.902Z,19.50
2018-08-23T20:16:41.598Z,19.50
2018-08-23T20:19:40.149Z,19.50
2018-08-23T20:22:38.215Z,19.50
2018-08-23T20:25:35.869Z,19.40
2018-08-23T20:28:33.561Z,19.50
2018-08-23T20:31:31.583Z,19.40
2018-08-23T20:34:29.074Z,19.40
2018-08-23T20:37:26.839Z,19.40
2018-08-23T20:40:24.432Z,19.40
2018-08-23T20:43:21.983Z,19.40
2018-08-23T20:46:19.827Z,19.40
2018-08-23T20:49:18.326Z,19.40
2018-08-23T20:52:16.050Z,19.40
2018-08-23T20:55:13.767Z,19.30
2018-08-23T20:58:11.736Z,19.30
2018-08-23T21:01:09.385Z,19.30
2018-08-23T21:04:07.248Z,19.20
2018-08-23T21:07:06.065Z,19.20
2018-08-23T21:10:03.999Z,19.20
2018-08-23T21:13:01.495Z,19.10
2018-08-23T21:15:59.080Z,19.10
2018-08-23T21:18:56.785Z,19.10
2018-08-23T21:21:54.299Z,19.10
2018-08-23T21:24:51.969Z,19.00
2018-08-23T21:27:49.815Z,19.00
2018-08-23T21:30:47.681Z,19.00
2018-08-23T21:33:45.472Z,19.00
2018-08-23T21:36:43.198Z,19.00
2018-08-23T21:39:40.858Z,19.00
2018-08-23T21:42:38.544Z,19.00
2018-08-23T21:45:36.200Z,19.00
2018-08-23T21:48:33.893Z,19.00
2018-08-23T21:51:31.597Z,19.00
2018-08-23T21:54:30.393Z,18.90
2018-08-23T21:57:28.060Z,18.80
2018-08-23T22:00:25.800Z,18.90
2018-08-23T22:03:23.652Z,18.80
2018-08-23T22:06:21.254Z,18.90
2018-08-23T22:09:21.101Z,18.90
2018-08-23T22:12:18.689Z,18.90
2018-08-23T22:15:16.456Z,19.00
2018-08-23T22:18:14.152Z,19.00
2018-08-23T22:21:11.952Z,18.90
2018-08-23T22:24:09.396Z,19.00
2018-08-23T22:27:07.192Z,19.00
2018-08-23T22:30:05.059Z,18.90
2018-08-23T22:33:03.046Z,18.80
2018-08-23T22:36:00.568Z,18.90
2018-08-23T22:38:58.169Z,18.80
2018-08-23T22:41:55.823Z,18.80
2018-08-23T22:44:53.556Z,18.90
2018-08-23T22:47:51.149Z,18.90
2018-08-23T22:50:48.972Z,18.90
2018-08-23T22:53:46.759Z,19.00
2018-08-23T22:56:44.545Z,19.00
2018-08-23T22:59:43.139Z,19.00
2018-08-23T23:02:44.855Z,18.90
2018-08-23T23:05:42.679Z,18.90
2018-08-23T23:08:40.591Z,18.90
2018-08-23T23:11:38.431Z,18.90
2018-08-23T23:14:36.250Z,18.90
2018-08-23T23:17:33.944Z,18.80
2018-08-23T23:20:32.311Z,18.80
2018-08-23T23:23:29.586Z,19.00
2018-08-23T23:26:27.403Z,18.90
2018-08-23T23:29:25.055Z,18.90
2018-08-23T23:32:22.604Z,18.80
2018-08-23T23:35:20.229Z,18.90
2018-08-23T23:38:17.871Z,18.90
2018-08-23T23:41:15.835Z,18.90
2018-08-23T23:44:13.627Z,18.80
2018-08-23T23:47:11.506Z,18.80
2018-08-23T23:50:09.263Z,18.70
2018-08-23T23:53:06.897Z,18.70
2018-08-23T23:56:04.540Z,18.60
2018-08-23T23:59:02.035Z,18.70
